Time;durP1;ratioP1;P1;durP2;ratioP2;P2;SDS_P1;SDS_P2;PMS_P1;PMS_P2;Temp;Humidity;BMP_temperature;BMP_pressure;BME280_temperature;BME280_humidity;BME280_pressure;Samples;Min_cycle;Max_cycle;Signal;HPM_P1;HPM_P2
2021/07/21 00:00:38;;;;;;;37.33;23.73;;;;;;;23.38;68.16;99990.56;1772934;81;21366;-72
2021/07/21 00:03:05;;;;;;;42.62;27.95;;;;;;;23.32;66.77;99978.80;1773028;81;20884;-71
2021/07/21 00:05:34;;;;;;;52.62;26.68;;;;;;;23.28;67.84;99983.38;1773188;81;21189;-76
2021/07/21 00:08:01;;;;;;;26.55;16.80;;;;;;;23.24;70.62;99958.84;1773192;81;21478;-73
2021/07/21 00:10:30;;;;;;;22.40;13.53;;;;;;;23.17;71.34;99924.00;1773106;81;20959;-73
2021/07/21 00:15:54;;;;;;;23.25;13.28;;;;;;;23.07;71.08;99871.33;1773086;81;20979;-73
2021/07/21 00:18:26;;;;;;;20.70;13.00;;;;;;;23.08;69.51;99872.17;1771043;81;21146;-72
2021/07/21 00:20:48;;;;;;;24.23;14.58;;;;;;;23.11;69.93;99869.10;1771153;81;20948;-72
2021/07/21 00:23:17;;;;;;;17.90;11.33;;;;;;;23.14;70.63;99849.98;1773177;81;20860;-72
2021/07/21 00:25:45;;;;;;;13.88;9.20;;;;;;;23.16;70.39;99822.53;1772882;80;20938;-73
2021/07/21 00:28:13;;;;;;;14.68;9.03;;;;;;;23.16;69.52;99828.70;1773140;81;20892;-73
2021/07/21 00:30:42;;;;;;;14.23;8.15;;;;;;;23.20;68.28;99835.02;1773345;81;21353;-73
2021/07/21 00:33:10;;;;;;;16.45;9.00;;;;;;;23.23;67.73;99852.83;1773130;80;20912;-73
2021/07/21 00:35:37;;;;;;;17.55;11.38;;;;;;;23.26;68.10;99859.67;1773395;81;20952;-75
2021/07/21 00:38:04;;;;;;;61.42;32.40;;;;;;;23.26;67.95;99869.85;1773151;81;20885;-74
2021/07/21 00:40:32;;;;;;;59.73;31.50;;;;;;;23.29;67.61;99871.31;1773452;81;20964;-74
2021/07/21 00:43:00;;;;;;;35.15;21.10;;;;;;;23.30;67.41;99864.44;1772993;81;21970;-73
2021/07/21 00:45:27;;;;;;;24.72;14.25;;;;;;;23.32;67.14;99859.72;1773067;81;20880;-73
2021/07/21 00:47:55;;;;;;;16.60;10.75;;;;;;;23.34;66.43;99852.82;1773086;81;20852;-73
2021/07/21 00:50:22;;;;;;;16.17;9.30;;;;;;;23.36;66.29;99856.13;1773406;81;20849;-73
2021/07/21 00:52:50;;;;;;;13.25;7.17;;;;;;;23.38;66.04;99854.09;1773090;80;20928;-73
2021/07/21 00:55:19;;;;;;;13.13;7.72;;;;;;;23.40;65.70;99857.92;1745539;81;21148;-73
2021/07/21 00:57:48;;;;;;;43.65;26.57;;;;;;;23.41;65.60;99859.07;1773099;80;20980;-73
2021/07/21 01:00:17;;;;;;;27.58;17.30;;;;;;;23.43;65.44;99847.63;1773360;81;20868;-74
2021/07/21 01:02:48;;;;;;;19.05;13.48;;;;;;;23.43;65.87;99828.90;1772082;81;21453;-73
2021/07/21 01:05:29;;;;;;;18.50;12.65;;;;;;;23.45;65.82;99830.88;1745003;81;20916;-73
2021/07/21 01:08:00;;;;;;;23.47;16.48;;;;;;;23.46;65.72;99839.23;1772711;80;21377;-72
2021/07/21 01:10:27;;;;;;;20.57;13.40;;;;;;;23.45;65.59;99824.19;1773495;81;21584;-72
2021/07/21 01:13:24;;;;;;;12.13;8.78;;;;;;;23.45;65.74;99820.69;1773031;81;20901;-72
2021/07/21 01:16:00;;;;;;;11.68;7.83;;;;;;;23.46;65.58;99816.48;1772995;81;21438;-72
2021/07/21 01:18:38;;;;;;;10.25;6.25;;;;;;;23.48;66.16;99825.15;1773244;80;20967;-72
2021/07/21 01:21:45;;;;;;;6.62;5.78;;;;;;;23.50;66.08;99829.80;1747170;81;21114;-72
2021/07/21 01:24:19;;;;;;;14.05;7.30;;;;;;;23.51;66.02;99831.44;1762691;81;20916;-73
2021/07/21 01:26:57;;;;;;;8.03;5.50;;;;;;;23.52;66.20;99818.39;1773402;81;20869;-73
2021/07/21 01:29:27;;;;;;;9.48;5.92;;;;;;;23.55;66.46;99813.15;1759517;81;20916;-72
2021/07/21 01:31:57;;;;;;;8.20;5.75;;;;;;;23.56;66.68;99800.88;1773083;81;20892;-72
2021/07/21 01:34:29;;;;;;;11.38;6.85;;;;;;;23.58;66.95;99802.86;1773491;80;21115;-72
2021/07/21 01:36:57;;;;;;;14.65;8.60;;;;;;;23.59;67.22;99814.41;1773083;81;20885;-73
2021/07/21 01:39:31;;;;;;;12.30;8.30;;;;;;;23.59;67.40;99822.44;1773453;81;20888;-73
2021/07/21 01:42:05;;;;;;;20.80;14.13;;;;;;;23.59;67.58;99822.44;1773043;81;20964;-74
2021/07/21 01:44:33;;;;;;;18.87;12.20;;;;;;;23.60;68.01;99821.41;1771228;80;21410;-71
2021/07/21 01:47:02;;;;;;;16.93;11.15;;;;;;;23.59;68.13;99813.08;1767292;80;21578;-71
2021/07/21 01:49:33;;;;;;;21.62;12.65;;;;;;;23.58;68.27;99810.06;1767634;81;20940;-71
2021/07/21 01:52:11;;;;;;;19.82;13.00;;;;;;;23.57;68.36;99813.78;1713753;81;20968;-72
2021/07/21 01:54:38;;;;;;;20.95;13.53;;;;;;;23.56;68.33;99834.34;1767600;81;20947;-72
2021/07/21 01:57:07;;;;;;;16.77;12.58;;;;;;;23.57;68.59;99837.88;1765888;81;20881;-73
2021/07/21 01:59:34;;;;;;;21.70;13.25;;;;;;;23.55;68.50;99840.73;1767650;81;21081;-72
2021/07/21 02:02:09;;;;;;;18.67;11.50;;;;;;;23.55;68.58;99854.12;1767061;81;20928;-72
2021/07/21 02:04:42;;;;;;;17.27;12.40;;;;;;;23.55;68.53;99858.13;1766739;80;20869;-73
2021/07/21 02:07:10;;;;;;;18.57;12.28;;;;;;;23.56;68.67;99877.69;1767309;81;20999;-73
2021/07/21 02:09:42;;;;;;;18.17;13.58;;;;;;;23.58;69.72;99901.89;1767356;81;20983;-72
2021/07/21 02:12:11;;;;;;;27.40;16.57;;;;;;;23.58;70.11;99974.69;1766969;81;21102;-73
2021/07/21 02:14:37;;;;;;;22.52;15.08;;;;;;;23.51;69.99;100021.47;1767453;81;21241;-73
2021/07/21 02:17:11;;;;;;;17.82;12.63;;;;;;;23.47;69.84;100038.92;1767072;80;21435;-72
2021/07/21 02:19:40;;;;;;;25.25;13.45;;;;;;;23.45;70.15;100065.05;1767128;81;20964;-72
2021/07/21 02:22:09;;;;;;;19.05;13.70;;;;;;;23.40;70.57;100058.10;1737215;81;20964;-72
2021/07/21 02:24:38;;;;;;;16.95;12.75;;;;;;;23.34;71.48;100065.55;1766515;80;21152;-71
2021/07/21 02:27:09;;;;;;;16.02;11.90;;;;;;;23.28;71.89;100059.12;1766594;81;20845;-72
2021/07/21 02:29:36;;;;;;;22.58;15.08;;;;;;;23.25;72.17;100065.34;1767703;81;21347;-72
2021/07/21 02:32:29;;;;;;;22.30;16.67;;;;;;;23.20;72.10;100070.44;1767329;81;21370;-72
2021/07/21 02:34:59;;;;;;;22.50;17.90;;;;;;;23.16;72.34;100061.95;1767333;80;20940;-72
2021/07/21 02:37:28;;;;;;;19.87;16.57;;;;;;;23.12;72.43;100050.81;1767289;81;22009;-72
2021/07/21 02:39:55;;;;;;;22.90;17.20;;;;;;;23.07;72.28;100046.52;1767608;80;21409;-72
2021/07/21 02:42:22;;;;;;;21.95;15.18;;;;;;;23.05;72.22;100063.77;1767265;80;20927;-74
2021/07/21 02:44:51;;;;;;;18.12;13.75;;;;;;;23.02;72.40;100073.00;1769034;81;21409;-73
2021/07/21 02:47:19;;;;;;;13.28;11.85;;;;;;;22.97;72.51;100082.06;1773059;81;20924;-73
2021/07/21 02:49:51;;;;;;;13.03;11.12;;;;;;;22.91;72.99;100087.64;1772928;81;20971;-74
2021/07/21 02:52:38;;;;;;;10.45;9.35;;;;;;;22.87;73.30;100088.20;1772951;81;20999;-75
2021/07/21 02:55:18;;;;;;;11.88;9.00;;;;;;;22.82;73.61;100091.42;1771080;81;20964;-75
2021/07/21 02:58:00;;;;;;;9.53;8.35;;;;;;;22.75;73.89;100087.84;1772914;81;20892;-74
2021/07/21 03:00:29;;;;;;;11.35;8.83;;;;;;;22.67;74.27;100089.26;1772536;81;20888;-75
2021/07/21 03:03:02;;;;;;;9.88;8.88;;;;;;;22.60;74.71;100081.14;1773374;80;21137;-74
2021/07/21 03:05:30;;;;;;;10.32;8.98;;;;;;;22.53;75.08;100073.03;1772946;80;20987;-73
2021/07/21 03:08:00;;;;;;;11.57;8.73;;;;;;;22.47;75.41;100040.36;1772996;80;21038;-75
2021/07/21 03:10:27;;;;;;;10.55;9.23;;;;;;;22.41;76.06;100017.55;1773174;81;20939;-75
2021/07/21 03:13:06;;;;;;;11.60;8.58;;;;;;;22.36;76.50;99991.38;1772728;81;20845;-74
2021/07/21 03:15:39;;;;;;;12.37;9.28;;;;;;;22.23;76.37;99982.70;1773086;80;20915;-74
2021/07/21 03:18:12;;;;;;;13.05;8.60;;;;;;;22.11;76.78;99991.62;1772960;81;20876;-74
2021/07/21 03:20:41;;;;;;;12.13;9.33;;;;;;;22.05;77.09;100020.89;1772977;81;21014;-73
2021/07/21 03:23:09;;;;;;;11.15;9.25;;;;;;;21.99;77.91;100029.62;1772972;81;21050;-74
2021/07/21 03:25:38;;;;;;;10.63;9.13;;;;;;;21.98;78.35;100050.67;1745155;81;21476;-73
2021/07/21 03:28:05;;;;;;;12.50;9.20;;;;;;;21.97;78.58;100059.20;1769927;80;21145;-74
2021/07/21 03:30:49;;;;;;;13.95;9.35;;;;;;;21.96;78.93;100046.84;1772873;81;21369;-73
2021/07/21 03:33:19;;;;;;;12.95;9.43;;;;;;;21.97;79.61;100034.34;1773238;81;20860;-75
2021/07/21 03:35:51;;;;;;;9.55;8.15;;;;;;;21.94;79.84;100039.03;1772947;81;20936;-73
2021/07/21 03:38:23;;;;;;;14.23;9.03;;;;;;;21.90;79.37;100054.25;1721433;81;20918;-74
2021/07/21 03:40:52;;;;;;;12.18;8.55;;;;;;;21.88;79.10;100046.92;1772720;80;21159;-73
2021/07/21 03:43:26;;;;;;;17.40;9.03;;;;;;;21.87;79.48;100024.72;1746752;81;20873;-74
2021/07/21 03:45:58;;;;;;;10.85;7.97;;;;;;;21.86;80.00;100004.90;1771904;81;20937;-74
2021/07/21 03:48:27;;;;;;;12.98;7.65;;;;;;;21.89;80.24;100001.86;1770183;81;20873;-74
2021/07/21 03:51:13;;;;;;;8.18;6.67;;;;;;;21.92;80.44;99992.98;1735774;81;20849;-72
2021/07/21 03:53:58;;;;;;;7.72;6.92;;;;;;;21.94;80.17;99996.79;1749240;81;21225;-73
2021/07/21 03:56:25;;;;;;;8.20;7.05;;;;;;;21.93;79.44;100032.02;1772890;81;20837;-73
2021/07/21 04:00:14;;;;;;;11.48;7.45;;;;;;;22.06;79.25;100053.28;1798743;79;22558;-72
2021/07/21 04:02:45;;;;;;;8.35;6.60;;;;;;;22.03;78.80;100041.13;1756875;80;20884;-72
2021/07/21 04:05:15;;;;;;;9.25;6.12;;;;;;;22.07;78.60;100033.05;1758259;81;21116;-72
2021/07/21 04:07:43;;;;;;;8.10;6.67;;;;;;;22.04;79.19;100013.91;1714972;81;20869;-72
2021/07/21 04:10:13;;;;;;;7.40;6.70;;;;;;;22.11;79.28;100030.86;1720250;83;20915;-72
2021/07/21 04:12:46;;;;;;;6.60;5.90;;;;;;;22.10;78.47;100054.58;1724470;83;21464;-73
2021/07/21 04:15:14;;;;;;;7.58;6.50;;;;;;;22.10;77.35;100067.94;1724803;83;20966;-71
2021/07/21 04:17:46;;;;;;;6.87;6.17;;;;;;;22.10;77.60;100080.77;1724577;83;21619;-73
2021/07/21 04:20:15;;;;;;;8.35;6.75;;;;;;;22.13;78.63;100063.55;1723937;83;20927;-75
2021/07/21 04:22:42;;;;;;;8.85;6.03;;;;;;;22.09;79.32;100037.70;1724872;81;20915;-72
2021/07/21 04:25:12;;;;;;;10.58;6.40;;;;;;;22.05;79.52;100035.58;1708459;83;21377;-72
2021/07/21 04:27:41;;;;;;;7.42;6.55;;;;;;;22.04;79.93;100080.66;1720038;83;20891;-74
2021/07/21 04:30:15;;;;;;;9.05;8.13;;;;;;;22.04;80.08;100127.39;1725139;81;21076;-73
2021/07/21 04:32:43;;;;;;;12.90;8.03;;;;;;;22.05;80.33;100161.09;1724717;83;20974;-73
2021/07/21 04:35:12;;;;;;;15.08;9.28;;;;;;;22.04;80.16;100162.94;1688550;83;21506;-73
2021/07/21 04:37:41;;;;;;;17.80;11.73;;;;;;;22.03;79.65;100166.63;1724324;83;20856;-74
2021/07/21 04:40:12;;;;;;;13.98;10.93;;;;;;;22.04;79.30;100225.69;1711036;83;20885;-74
2021/07/21 04:42:47;;;;;;;16.90;12.98;;;;;;;22.03;79.12;100252.08;1711361;83;21812;-74
2021/07/21 04:45:15;;;;;;;17.12;11.18;;;;;;;21.99;78.69;100265.93;1685441;83;21003;-75
2021/07/21 04:47:42;;;;;;;11.75;7.58;;;;;;;21.91;78.51;100266.31;1722076;83;20956;-73
2021/07/21 04:50:13;;;;;;;10.98;7.12;;;;;;;21.85;78.50;100283.53;1722157;82;20900;-74
2021/07/21 04:52:42;;;;;;;9.08;6.70;;;;;;;21.79;78.52;100286.88;1719695;83;20869;-75
2021/07/21 04:55:10;;;;;;;10.75;6.08;;;;;;;21.72;78.51;100285.41;1696237;83;21150;-73
2021/07/21 04:57:38;;;;;;;6.70;4.97;;;;;;;21.67;78.67;100265.09;1722136;83;20892;-74
2021/07/21 05:00:08;;;;;;;10.50;5.20;;;;;;;21.63;78.83;100253.09;1710697;82;21486;-75
2021/07/21 05:02:43;;;;;;;8.70;6.47;;;;;;;21.60;78.79;100242.27;1698505;84;20961;-74
2021/07/21 05:05:11;;;;;;;7.97;5.95;;;;;;;21.58;79.37;100214.92;1709099;84;20940;-75
2021/07/21 05:07:40;;;;;;;9.83;5.85;;;;;;;21.57;79.83;100217.78;1708563;84;21850;-76
2021/07/21 05:10:09;;;;;;;6.95;5.90;;;;;;;21.59;80.01;100215.73;1708405;84;21370;-71
2021/07/21 05:12:43;;;;;;;6.22;5.35;;;;;;;21.60;79.59;100194.73;1708484;83;20925;-73
2021/07/21 05:15:08;;;;;;;9.48;6.03;;;;;;;21.57;80.02;100163.08;1708236;83;20960;-73
2021/07/21 05:17:35;;;;;;;11.55;7.62;;;;;;;21.56;80.48;100131.53;1708605;84;20909;-73
2021/07/21 05:20:07;;;;;;;11.80;7.42;;;;;;;21.59;80.05;100111.67;1708249;83;20921;-73
2021/07/21 05:22:47;;;;;;;10.03;7.17;;;;;;;21.57;79.83;100119.05;1708324;83;20861;-70
2021/07/21 05:25:17;;;;;;;12.80;8.38;;;;;;;21.54;79.11;100129.55;1707520;84;20976;-71
2021/07/21 05:27:46;;;;;;;12.15;7.75;;;;;;;21.51;78.72;100141.41;1704094;83;21931;-72
2021/07/21 05:30:14;;;;;;;8.70;7.60;;;;;;;21.45;78.36;100136.76;1708863;83;20985;-72
2021/07/21 05:32:54;;;;;;;13.55;9.05;;;;;;;21.39;78.64;100124.11;1707142;83;21113;-71
2021/07/21 05:35:22;;;;;;;11.30;9.03;;;;;;;21.36;79.03;100089.77;1708774;84;20884;-71
2021/07/21 05:37:56;;;;;;;10.08;9.03;;;;;;;21.37;79.32;100066.61;1706022;84;20964;-73
2021/07/21 05:40:25;;;;;;;12.85;9.53;;;;;;;21.36;79.29;100056.93;1708529;84;21430;-72
2021/07/21 05:43:04;;;;;;;10.38;9.35;;;;;;;21.35;79.50;100031.28;1709094;84;20893;-72
2021/07/21 05:45:32;;;;;;;13.40;11.10;;;;;;;21.37;79.74;100034.60;1708079;84;22330;-72
2021/07/21 05:47:59;;;;;;;12.85;10.53;;;;;;;21.38;79.53;100026.91;1708721;84;21372;-72
2021/07/21 05:50:27;;;;;;;12.33;11.10;;;;;;;21.39;79.97;100017.41;1708499;83;20980;-71
2021/07/21 05:53:01;;;;;;;16.25;11.78;;;;;;;21.39;80.08;99982.73;1708716;84;21004;-73
2021/07/21 05:55:37;;;;;;;17.90;11.75;;;;;;;21.39;80.19;99983.20;1707721;84;20944;-72
2021/07/21 05:58:23;;;;;;;15.58;11.45;;;;;;;21.39;79.64;100010.73;1707793;83;21183;-75
2021/07/21 06:00:50;;;;;;;17.77;11.75;;;;;;;21.41;79.62;100042.10;1667800;84;20907;-72
2021/07/21 06:03:21;;;;;;;17.25;11.88;;;;;;;21.44;79.79;100040.91;1673420;84;20903;-71
2021/07/21 06:06:07;;;;;;;14.28;12.23;;;;;;;21.49;80.32;100039.36;1673342;84;20935;-72
2021/07/21 06:08:52;;;;;;;14.50;12.30;;;;;;;21.55;80.33;100019.66;1669163;84;21385;-72
2021/07/21 06:11:20;;;;;;;16.93;12.10;;;;;;;21.54;79.84;99990.80;1673308;84;21558;-72
2021/07/21 06:13:49;;;;;;;14.93;11.20;;;;;;;21.52;79.86;99970.98;1673388;84;20903;-72
2021/07/21 06:16:19;;;;;;;12.47;11.25;;;;;;;21.51;79.70;99969.31;1673567;84;20946;-72
2021/07/21 06:18:46;;;;;;;12.82;11.40;;;;;;;21.50;79.63;99970.84;1673681;84;20938;-72
2021/07/21 06:21:13;;;;;;;14.00;11.63;;;;;;;21.49;78.76;99994.52;1673403;84;20943;-74
2021/07/21 06:23:42;;;;;;;15.60;12.43;;;;;;;21.46;78.33;99986.37;1669637;84;21606;-72
2021/07/21 06:26:10;;;;;;;23.18;16.15;;;;;;;21.48;78.16;99986.20;1673455;84;20884;-73
2021/07/21 06:28:57;;;;;;;28.42;18.07;;;;;;;21.49;77.88;99973.99;1672633;84;20919;-72
2021/07/21 06:31:26;;;;;;;30.72;16.73;;;;;;;21.50;78.02;99966.33;1646223;85;20966;-73
2021/07/21 06:33:53;;;;;;;22.10;15.48;;;;;;;21.51;78.24;99962.64;1673955;85;21037;-74
2021/07/21 06:36:20;;;;;;;24.30;14.87;;;;;;;21.51;77.77;99964.48;1673412;84;21137;-74
2021/07/21 06:38:48;;;;;;;19.45;14.80;;;;;;;21.52;76.85;99967.47;1673295;84;21472;-75
2021/07/21 06:41:32;;;;;;;18.25;14.85;;;;;;;21.53;76.98;99974.48;1673224;84;26029;-76
2021/07/21 06:44:00;;;;;;;21.37;14.50;;;;;;;21.56;76.17;99992.78;1646289;85;20895;-73
2021/07/21 06:46:41;;;;;;;23.35;14.60;;;;;;;21.56;75.63;100003.97;1587720;90;20900;-73
2021/07/21 06:49:16;;;;;;;29.10;22.45;;;;;;;21.56;75.72;100003.97;1587302;90;21717;-75
2021/07/21 06:51:43;;;;;;;29.15;18.87;;;;;;;21.59;76.09;99996.92;1620565;87;21169;-77
2021/07/21 06:54:11;;;;;;;16.82;12.93;;;;;;;21.62;76.23;99989.92;1561002;90;20938;-76
2021/07/21 06:56:56;;;;;;;20.30;12.78;;;;;;;21.68;75.95;99978.53;1581262;89;20994;-78
2021/07/21 06:59:42;;;;;;;15.05;11.50;;;;;;;21.75;76.14;99979.46;1640699;85;20933;-80
2021/07/21 07:02:10;;;;;;;15.72;10.32;;;;;;;21.80;75.58;99967.73;1670127;85;21609;-77
2021/07/21 07:04:39;;;;;;;15.95;11.57;;;;;;;21.84;75.77;99973.03;1667409;85;20901;-82
2021/07/21 07:07:24;;;;;;;18.35;13.40;;;;;;;21.87;75.85;99962.49;1670565;86;21564;-79
2021/07/21 07:10:11;;;;;;;18.67;13.50;;;;;;;21.94;75.71;99962.94;1670498;86;20987;-86
2021/07/21 07:12:39;;;;;;;27.98;18.62;;;;;;;22.01;75.31;99973.72;1669711;86;20862;-83
2021/07/21 07:15:09;;;;;;;32.83;22.67;;;;;;;22.06;75.15;99979.33;1668799;85;20994;-76
2021/07/21 07:17:38;;;;;;;30.48;20.25;;;;;;;22.09;75.53;99986.97;1670644;85;21559;-83
2021/07/21 07:20:13;;;;;;;29.67;22.42;;;;;;;22.10;75.40;99969.13;1670991;85;21036;-86
2021/07/21 07:22:39;;;;;;;34.00;22.75;;;;;;;22.10;74.69;99967.78;1711720;82;20940;-81
2021/07/21 07:25:08;;;;;;;35.65;22.62;;;;;;;22.11;74.43;99957.41;1752696;82;21441;-85
2021/07/21 07:27:35;;;;;;;35.68;25.95;;;;;;;22.12;74.35;99953.72;1752816;82;21143;-85
2021/07/21 07:30:02;;;;;;;31.00;21.12;;;;;;;22.11;74.42;99942.21;1752971;82;20853;-85
2021/07/21 07:32:33;;;;;;;35.58;26.12;;;;;;;22.12;75.06;99937.69;1752181;80;20921;-85
2021/07/21 07:35:00;;;;;;;37.42;26.27;;;;;;;22.13;74.83;99954.05;1752815;82;20877;-75
2021/07/21 07:37:26;;;;;;;38.08;24.65;;;;;;;22.12;74.64;99957.72;1752227;82;20936;-74
2021/07/21 07:39:54;;;;;;;37.35;25.97;;;;;;;22.13;74.91;99968.23;1752385;80;21210;-75
2021/07/21 07:42:20;;;;;;;35.85;25.20;;;;;;;22.19;76.17;99969.84;1752445;82;20931;-75
2021/07/21 07:44:47;;;;;;;39.73;24.95;;;;;;;22.23;76.73;99960.00;1752476;82;20959;-75
2021/07/21 07:47:15;;;;;;;40.23;24.40;;;;;;;22.23;77.13;99961.33;1752833;80;20952;-79
2021/07/21 07:49:42;;;;;;;40.52;26.37;;;;;;;22.26;77.94;99975.64;1752912;82;20872;-80
2021/07/21 07:52:09;;;;;;;34.05;23.05;;;;;;;22.30;78.22;99976.94;1752669;82;21539;-81
2021/07/21 07:54:38;;;;;;;23.35;17.45;;;;;;;22.38;78.57;99976.00;1752485;82;20913;-83
2021/07/21 07:57:05;;;;;;;17.90;10.98;;;;;;;22.45;77.43;99972.08;1753114;82;20936;-73
2021/07/21 07:59:36;;;;;;;15.40;10.55;;;;;;;22.54;76.03;99982.98;1750670;82;20953;-73
2021/07/21 08:02:05;;;;;;;11.60;9.23;;;;;;;22.68;75.00;99977.33;1744878;82;20929;-78
2021/07/21 08:04:33;;;;;;;17.23;11.85;;;;;;;22.85;74.28;99969.91;1708909;83;21592;-82
2021/07/21 08:07:01;;;;;;;21.07;14.33;;;;;;;23.06;74.45;99976.66;1744605;81;20912;-82
2021/07/21 08:09:30;;;;;;;23.42;16.60;;;;;;;23.28;74.53;99970.00;1744634;82;21422;-80
2021/07/21 08:11:59;;;;;;;17.07;13.28;;;;;;;23.56;74.34;99960.66;1744767;82;21054;-81
2021/07/21 08:14:26;;;;;;;22.58;16.62;;;;;;;23.88;73.56;99962.48;1744642;82;20971;-81
2021/07/21 08:16:53;;;;;;;23.22;14.65;;;;;;;24.28;72.14;99965.41;1744768;81;21561;-81
2021/07/21 08:19:21;;;;;;;24.75;17.17;;;;;;;24.72;70.35;99973.59;1744522;81;20929;-81
2021/07/21 08:21:48;;;;;;;24.12;17.50;;;;;;;25.13;67.93;99976.20;1744902;82;20897;-81
2021/07/21 08:24:15;;;;;;;24.80;16.95;;;;;;;25.51;66.19;99974.85;1744686;82;20905;-81
2021/07/21 08:26:42;;;;;;;27.05;17.37;;;;;;;25.83;64.13;99974.52;1744641;80;20972;-76
2021/07/21 08:29:09;;;;;;;25.00;17.77;;;;;;;26.23;63.55;99965.09;1744490;82;21351;-74
2021/07/21 08:31:36;;;;;;;11.35;8.80;;;;;;;26.66;62.66;99955.16;1738356;82;20846;-72
2021/07/21 08:34:05;;;;;;;11.97;6.45;;;;;;;27.14;61.84;99948.47;1744485;81;21015;-73
2021/07/21 08:36:36;;;;;;;8.28;6.15;;;;;;;27.47;60.56;99938.83;1744847;80;20901;-74
2021/07/21 08:39:05;;;;;;;10.03;8.15;;;;;;;27.80;59.54;99943.11;1744461;82;20881;-74
2021/07/21 08:41:34;;;;;;;8.10;6.00;;;;;;;28.00;58.78;99945.64;1744794;80;21552;-74
2021/07/21 08:44:01;;;;;;;28.47;4.72;;;;;;;28.32;58.39;99940.92;1744420;81;20843;-73
2021/07/21 08:46:28;;;;;;;4.12;3.80;;;;;;;28.70;56.50;99938.00;1744546;82;20956;-73
2021/07/21 08:48:55;;;;;;;6.00;4.15;;;;;;;29.13;56.40;99946.45;1744856;81;20932;-75
2021/07/21 08:51:24;;;;;;;5.12;3.98;;;;;;;29.55;54.38;99934.79;1744575;82;20908;-73
2021/07/21 08:53:51;;;;;;;7.85;4.35;;;;;;;29.74;53.50;99933.63;1744831;80;21419;-75
2021/07/21 08:56:19;;;;;;;5.75;4.58;;;;;;;29.97;53.44;99932.00;1744592;82;21401;-76
2021/07/21 08:58:47;;;;;;;5.58;4.95;;;;;;;30.16;52.79;99947.00;1744825;82;21059;-75
2021/07/21 09:01:14;;;;;;;7.85;5.47;;;;;;;30.28;51.62;99947.53;1754916;81;20959;-75
2021/07/21 09:03:41;;;;;;;5.05;4.55;;;;;;;30.25;51.14;99945.28;1758234;80;20844;-79
2021/07/21 09:06:09;;;;;;;5.08;4.67;;;;;;;30.19;51.63;99944.34;1758026;81;21222;-82
2021/07/21 09:08:36;;;;;;;4.72;4.20;;;;;;;29.97;50.49;99950.92;1758010;80;20967;-78
2021/07/21 09:11:03;;;;;;;4.33;3.92;;;;;;;29.68;50.85;99952.16;1695609;83;21421;-77
2021/07/21 09:13:36;;;;;;;5.05;4.12;;;;;;;29.46;51.20;99946.97;1721775;83;20923;-77
2021/07/21 09:16:04;;;;;;;5.47;4.80;;;;;;;29.48;51.85;99943.00;1696787;83;21409;-77
2021/07/21 09:18:33;;;;;;;5.22;4.75;;;;;;;29.53;52.16;99939.59;1722147;83;21129;-76
2021/07/21 09:21:07;;;;;;;5.37;4.87;;;;;;;29.62;51.97;99932.78;1721597;83;20904;-77
2021/07/21 09:23:41;;;;;;;5.92;4.58;;;;;;;29.76;51.27;99933.41;1722377;83;20919;-77
2021/07/21 09:26:08;;;;;;;5.42;4.97;;;;;;;29.83;50.81;99933.28;1722731;82;20943;-80
2021/07/21 09:28:39;;;;;;;4.65;4.25;;;;;;;29.95;50.57;99935.46;1722406;83;20939;-78
2021/07/21 09:31:06;;;;;;;6.03;4.92;;;;;;;30.14;51.14;99935.59;1721616;82;21083;-78
2021/07/21 09:33:34;;;;;;;5.12;4.62;;;;;;;30.35;49.83;99930.13;1722059;82;21382;-76
2021/07/21 09:36:01;;;;;;;5.55;5.05;;;;;;;30.51;49.81;99914.20;1722089;82;20919;-80
2021/07/21 09:38:30;;;;;;;5.15;4.65;;;;;;;30.79;49.54;99910.64;1721862;83;20872;-76
2021/07/21 09:41:01;;;;;;;5.37;4.37;;;;;;;31.08;48.58;99910.13;1721824;83;20931;-75
2021/07/21 09:43:31;;;;;;;4.33;4.03;;;;;;;31.44;48.57;99906.67;1721866;83;21975;-75
2021/07/21 09:46:12;;;;;;;4.92;4.60;;;;;;;31.79;47.93;99902.32;1721804;82;20955;-76
2021/07/21 09:48:49;;;;;;;4.40;4.00;;;;;;;32.14;45.99;99904.41;1721806;83;20864;-76
2021/07/21 09:51:29;;;;;;;6.50;4.72;;;;;;;32.44;46.15;99898.55;1722134;82;20971;-77
2021/07/21 09:53:56;;;;;;;4.22;3.83;;;;;;;32.50;45.60;99889.36;1722163;83;21488;-76
2021/07/21 09:56:30;;;;;;;5.22;4.72;;;;;;;32.46;45.74;99887.41;1721858;82;21144;-75
2021/07/21 09:59:33;;;;;;;4.62;4.22;;;;;;;32.35;46.38;99877.81;1721963;83;20950;-78
2021/07/21 10:01:56;;;;;;;5.22;3.52;;;;;;;32.40;46.64;99863.48;1715504;82;20908;-76
2021/07/21 10:04:38;;;;;;;4.25;3.95;;;;;;;32.35;44.84;99862.05;1716500;83;20860;-75
2021/07/21 10:09:51;;;;;;;4.37;4.03;;;;;;;32.33;45.63;99857.44;1716753;82;21037;-78
2021/07/21 10:12:19;;;;;;;4.25;3.95;;;;;;;32.20;45.13;99851.31;1716356;83;20892;-78
2021/07/21 10:14:58;;;;;;;4.90;4.53;;;;;;;32.29;45.37;99850.33;1716361;83;20931;-74
2021/07/21 10:17:26;;;;;;;4.10;3.80;;;;;;;32.33;45.53;99849.30;1716712;83;21581;-81
2021/07/21 10:19:54;;;;;;;3.70;3.40;;;;;;;32.43;46.13;99839.89;1716599;82;21338;-79
2021/07/21 10:22:21;;;;;;;4.40;4.10;;;;;;;32.56;44.63;99838.70;1716670;82;21081;-74
2021/07/21 10:24:48;;;;;;;3.95;3.60;;;;;;;32.69;43.83;99829.32;1716380;83;20892;-75
2021/07/21 10:27:18;;;;;;;3.83;3.52;;;;;;;32.74;44.72;99836.95;1716188;83;20972;-76
2021/07/21 10:29:45;;;;;;;4.15;3.80;;;;;;;32.89;43.96;99836.28;1716790;82;20955;-77
2021/07/21 10:32:16;;;;;;;4.05;3.30;;;;;;;32.98;43.49;99828.48;1716734;83;21014;-76
2021/07/21 10:34:43;;;;;;;6.75;3.85;;;;;;;33.13;43.83;99828.63;1716550;83;21154;-74
2021/07/21 10:37:10;;;;;;;5.28;3.85;;;;;;;33.27;42.98;99826.27;1711933;83;20928;-77
2021/07/21 10:39:37;;;;;;;4.10;3.80;;;;;;;33.47;43.50;99822.05;1716335;83;21342;-74
2021/07/21 10:42:08;;;;;;;4.12;3.72;;;;;;;33.63;43.22;99811.00;1716400;83;20939;-74
2021/07/21 10:44:35;;;;;;;4.03;3.72;;;;;;;33.74;42.11;99801.53;1716411;83;20943;-77
2021/07/21 10:47:25;;;;;;;5.30;4.10;;;;;;;33.95;42.60;99806.50;1716464;83;21920;-71
2021/07/21 10:50:09;;;;;;;3.30;3.10;;;;;;;34.07;42.32;99804.38;1752135;81;20932;-72
2021/07/21 10:52:42;;;;;;;4.65;3.45;;;;;;;34.30;42.41;99806.36;1750785;81;20976;-72
2021/07/21 10:55:16;;;;;;;3.87;3.55;;;;;;;34.44;41.01;99802.86;1751205;81;20901;-75
2021/07/21 11:00:32;;;;;;;3.10;2.90;;;;;;;34.52;39.66;99806.94;1715165;82;21468;-72
2021/07/21 11:03:25;;;;;;;3.67;3.17;;;;;;;34.45;40.42;99790.05;1708650;84;20857;-73
2021/07/21 11:06:10;;;;;;;;;;;;;;;34.42;40.16;99796.05;1711480;84;20900;-75
2021/07/21 11:08:45;;;;;;;6.17;4.45;;;;;;;34.40;40.42;99796.31;1695010;83;20452;-71
2021/07/21 11:11:20;;;;;;;3.27;2.98;;;;;;;34.31;40.28;99788.92;1708497;84;21327;-72
2021/07/21 11:13:58;;;;;;;3.02;2.83;;;;;;;34.23;40.67;99787.02;1708243;84;21823;-73
2021/07/21 11:16:49;;;;;;;4.22;3.25;;;;;;;34.24;40.85;99786.47;1708848;84;20905;-71
2021/07/21 11:19:46;;;;;;;3.45;3.15;;;;;;;34.24;40.71;99791.39;1708318;84;20985;-71
2021/07/21 11:22:26;;;;;;;6.92;3.02;;;;;;;34.19;40.29;99787.83;1708713;84;20893;-71
2021/07/21 11:25:11;;;;;;;3.55;3.08;;;;;;;34.01;41.28;99790.47;1708440;84;20932;-72
2021/07/21 11:28:03;;;;;;;6.83;3.45;;;;;;;33.95;41.87;99790.17;1708408;83;23025;-71
2021/07/21 11:30:58;;;;;;;24.03;4.87;;;;;;;33.86;42.30;99778.98;1708686;84;20988;-73
2021/07/21 11:34:01;;;;;;;4.25;3.60;;;;;;;33.75;42.53;99784.96;1651416;86;20962;-73
2021/07/21 11:36:48;;;;;;;4.45;3.50;;;;;;;33.69;42.25;99787.37;1650750;87;21538;-69
2021/07/21 11:39:54;;;;;;;3.33;3.12;;;;;;;33.60;42.35;99782.98;1651316;87;21487;-72
2021/07/21 11:42:38;;;;;;;6.10;3.42;;;;;;;33.47;42.04;99790.23;1651296;87;21139;-71
2021/07/21 11:45:11;;;;;;;;;;;;;;;33.35;42.58;99787.73;1653612;87;20929;-71
2021/07/21 11:47:45;;;;;;;3.27;2.95;;;;;;;33.17;42.21;99790.34;1651183;87;20384;-72
2021/07/21 11:50:20;;;;;;;5.80;2.80;;;;;;;32.98;42.92;99789.09;1651547;87;20909;-71
2021/07/21 11:52:58;;;;;;;7.83;3.62;;;;;;;32.84;42.97;99788.72;1651323;87;20960;-72